Orlando, Florida
Traffic Map
Current Weather Conditions
Orlando, Florida
Clear
Clear
79°
Feels Like: 82°
Wind Chill: 79° Ceiling: Unl
Heat Index: 82° Visibility: 10mi
Dew Point: 73° Wind: 6mph
Humidity: 83% Direction: 160° (SSE)
Pressure: 30.03in Gusts: 0mph
Raw Report DataKORL 212353Z 16005KT 10SM CLR 26/23 A3003
Traffic Incident Summary
Active as of:
Severity:
Category:
InformationThere was an issue retrieving the traffic information for this location. Please try a different location or try again shortly.
Advertisements
Track Severe Weather on mobile